Time;durP1;ratioP1;P1;durP2;ratioP2;P2;SDS_P1;SDS_P2;PMS_P1;PMS_P2;Temp;Humidity;BMP_temperature;BMP_pressure;BME280_temperature;BME280_humidity;BME280_pressure;Samples;Min_cycle;Max_cycle;Signal;HPM_P1;HPM_P2
2023/04/08 00:01:57;;;;;;;12.87;8.67;;;8.00;79.30;;;;;;5113920;28;20200;-78
2023/04/08 00:04:23;;;;;;;10.37;7.83;;;8.00;79.00;;;;;;5114966;28;20202;-78
2023/04/08 00:06:49;;;;;;;11.27;8.73;;;8.00;79.30;;;;;;5113585;28;20174;-76
2023/04/08 00:09:14;;;;;;;10.73;8.57;;;8.00;79.30;;;;;;5113286;28;20178;-78
2023/04/08 00:11:41;;;;;;;11.60;8.13;;;8.00;79.10;;;;;;5113214;28;20200;-77
2023/04/08 00:14:07;;;;;;;10.90;8.57;;;8.00;79.40;;;;;;5112934;28;20221;-75
2023/04/08 00:16:32;;;;;;;10.83;8.43;;;8.10;79.40;;;;;;5112648;28;20174;-76
2023/04/08 00:18:58;;;;;;;12.83;9.93;;;8.10;79.30;;;;;;5112884;28;20205;-77
2023/04/08 00:21:24;;;;;;;15.53;9.20;;;8.00;79.40;;;;;;5112944;28;20178;-78
2023/04/08 00:23:49;;;;;;;12.00;9.13;;;8.00;79.70;;;;;;5112876;28;20230;-78
2023/04/08 00:26:15;;;;;;;11.07;8.00;;;8.00;79.90;;;;;;5112356;28;20967;-76
2023/04/08 00:28:42;;;;;;;13.47;9.23;;;8.00;79.90;;;;;;5112891;28;20173;-76
2023/04/08 00:31:08;;;;;;;10.90;8.27;;;7.90;80.90;;;;;;5094471;28;20561;-78
2023/04/08 00:33:34;;;;;;;12.10;8.90;;;7.80;80.50;;;;;;5112713;28;20574;-78
2023/04/08 00:35:59;;;;;;;11.43;8.73;;;7.90;80.80;;;;;;5112438;28;20244;-77
2023/04/08 00:38:25;;;;;;;11.87;8.90;;;7.90;80.20;;;;;;5112757;28;20235;-78
2023/04/08 00:40:51;;;;;;;13.63;9.03;;;8.00;80.10;;;;;;5112845;28;20183;-77
2023/04/08 00:43:19;;;;;;;11.53;9.00;;;8.00;80.60;;;;;;5112722;28;20625;-77
2023/04/08 00:45:46;;;;;;;13.47;8.87;;;7.90;80.90;;;;;;5094169;28;20169;-81
2023/04/08 00:48:12;;;;;;;10.97;8.93;;;7.80;81.20;;;;;;5112277;28;20169;-78
2023/04/08 00:50:37;;;;;;;12.87;8.93;;;7.80;81.10;;;;;;5112579;28;20398;-78
2023/04/08 00:53:03;;;;;;;9.10;7.97;;;7.80;81.20;;;;;;5112465;28;20625;-76
2023/04/08 00:55:29;;;;;;;9.47;8.17;;;7.90;81.00;;;;;;5112440;28;20624;-77
2023/04/08 00:57:56;;;;;;;12.13;8.93;;;7.80;81.00;;;;;;5112058;28;20201;-75
2023/04/08 01:00:22;;;;;;;13.80;9.13;;;7.90;81.00;;;;;;5112531;28;20185;-76
2023/04/08 01:03:04;;;;;;;15.13;9.60;;;7.80;81.20;;;;;;5112343;28;20177;-76
2023/04/08 01:05:46;;;;;;;11.47;9.10;;;7.80;81.00;;;;;;5094062;28;20169;-77
2023/04/08 01:08:13;;;;;;;13.10;9.23;;;7.80;81.20;;;;;;5091152;28;21333;-77
2023/04/08 01:10:44;;;;;;;12.37;9.10;;;7.80;81.40;;;;;;5111360;28;20185;-78
2023/04/08 01:13:13;;;;;;;10.37;8.20;;;7.80;81.30;;;;;;5112283;28;20614;-76
2023/04/08 01:15:41;;;;;;;13.60;9.30;;;7.70;81.90;;;;;;5111884;28;20327;-76
2023/04/08 01:18:11;;;;;;;13.80;9.27;;;7.70;81.80;;;;;;5111867;28;20206;-77
2023/04/08 01:20:39;;;;;;;13.83;9.77;;;7.70;81.80;;;;;;5112595;28;20240;-77
2023/04/08 01:23:22;;;;;;;13.03;8.80;;;7.70;82.30;;;;;;5113013;28;20185;-77
2023/04/08 01:25:52;;;;;;;11.97;8.83;;;7.70;81.90;;;;;;5112141;28;20173;-77
2023/04/08 01:28:21;;;;;;;10.87;8.70;;;7.80;82.00;;;;;;5111977;28;20173;-76
2023/04/08 01:30:48;;;;;;;10.77;8.40;;;7.80;82.20;;;;;;5111507;28;20194;-78
2023/04/08 01:33:17;;;;;;;10.17;8.57;;;7.80;82.50;;;;;;5112086;28;20260;-77
2023/04/08 01:35:44;;;;;;;12.33;8.70;;;7.70;82.70;;;;;;5112041;28;20169;-77
2023/04/08 01:38:17;;;;;;;12.43;9.00;;;7.70;82.80;;;;;;5111667;28;20319;-78
2023/04/08 01:40:43;;;;;;;13.83;9.63;;;7.70;82.90;;;;;;5111975;28;20183;-77
2023/04/08 01:43:14;;;;;;;12.90;9.17;;;7.70;83.10;;;;;;5112132;28;20176;-78
2023/04/08 01:45:42;;;;;;;10.83;9.17;;;7.70;82.90;;;;;;5112024;28;20158;-78
2023/04/08 01:48:09;;;;;;;13.33;9.60;;;7.70;83.00;;;;;;5111873;28;20181;-78
2023/04/08 01:50:35;;;;;;;11.97;9.03;;;7.70;82.90;;;;;;5111796;28;20176;-79
2023/04/08 01:53:03;;;;;;;11.90;9.10;;;7.70;83.20;;;;;;5112155;28;20267;-79
2023/04/08 01:55:31;;;;;;;11.77;9.30;;;7.70;83.50;;;;;;5111912;28;20181;-79
2023/04/08 01:57:59;;;;;;;13.37;9.20;;;7.70;83.40;;;;;;5111645;28;20184;-77
2023/04/08 02:00:28;;;;;;;12.57;9.27;;;7.70;83.40;;;;;;5111958;28;20252;-78
2023/04/08 02:02:55;;;;;;;15.13;9.70;;;7.80;83.50;;;;;;5111752;28;20222;-76
2023/04/08 02:05:21;;;;;;;11.90;9.10;;;7.80;83.50;;;;;;5111684;28;20177;-78
2023/04/08 02:07:48;;;;;;;11.73;9.57;;;7.70;83.70;;;;;;5111293;28;20177;-77
2023/04/08 02:10:14;;;;;;;11.70;9.30;;;7.70;84.00;;;;;;5111625;28;20310;-76
2023/04/08 02:12:41;;;;;;;16.77;9.97;;;7.60;84.20;;;;;;5111794;28;20172;-78
2023/04/08 02:15:07;;;;;;;14.23;9.60;;;7.70;83.70;;;;;;5111579;28;20221;-78
2023/04/08 02:17:50;;;;;;;12.07;9.07;;;7.70;84.10;;;;;;5114744;28;20225;-79
2023/04/08 02:20:19;;;;;;;14.07;9.90;;;7.70;84.20;;;;;;5115173;28;20170;-76
2023/04/08 02:23:00;;;;;;;13.23;9.27;;;7.60;84.60;;;;;;5115481;28;20177;-77
2023/04/08 02:25:28;;;;;;;13.13;9.63;;;7.60;84.60;;;;;;5115378;28;20173;-76
2023/04/08 02:27:55;;;;;;;10.63;9.47;;;7.70;85.20;;;;;;5114686;28;20177;-77
2023/04/08 02:30:24;;;;;;;11.70;9.50;;;7.60;85.60;;;;;;5115226;28;20529;-79
2023/04/08 02:32:52;;;;;;;14.03;9.23;;;7.60;85.30;;;;;;5115297;28;20176;-77
2023/04/08 02:35:19;;;;;;;11.83;9.93;;;7.50;85.20;;;;;;5115070;28;20174;-77
2023/04/08 02:37:46;;;;;;;13.27;10.07;;;7.50;85.20;;;;;;5114733;28;20658;-77
2023/04/08 02:40:29;;;;;;;13.07;9.33;;;7.60;85.30;;;;;;5115448;28;20181;-76
2023/04/08 02:42:55;;;;;;;12.20;9.77;;;7.50;85.10;;;;;;5096784;28;20236;-76
2023/04/08 02:45:22;;;;;;;12.13;9.60;;;7.50;85.30;;;;;;5114860;28;20181;-77
2023/04/08 02:47:48;;;;;;;14.53;10.07;;;7.50;85.30;;;;;;5113008;28;20338;-78
2023/04/08 02:50:13;;;;;;;12.40;9.47;;;7.50;85.40;;;;;;5114703;28;20197;-76
2023/04/08 02:52:39;;;;;;;13.03;9.47;;;7.50;85.70;;;;;;5114845;28;20559;-76
2023/04/08 02:55:08;;;;;;;12.17;9.43;;;7.60;85.60;;;;;;5096759;28;20549;-76
2023/04/08 02:57:35;;;;;;;11.97;9.73;;;7.60;86.10;;;;;;5114435;28;20517;-77
2023/04/08 03:00:03;;;;;;;14.80;10.67;;;7.50;87.20;;;;;;5114681;28;20277;-76
2023/04/08 03:02:28;;;;;;;11.97;9.60;;;7.50;87.20;;;;;;5114824;28;20186;-76
2023/04/08 03:04:54;;;;;;;12.07;9.73;;;7.60;87.70;;;;;;5114832;28;20166;-77
2023/04/08 03:07:20;;;;;;;11.37;9.37;;;7.70;87.50;;;;;;5114225;28;20179;-76
2023/04/08 03:09:46;;;;;;;16.17;10.30;;;7.70;90.10;;;;;;5113718;28;20174;-79
2023/04/08 03:12:11;;;;;;;12.80;9.47;;;7.60;90.10;;;;;;5114308;28;20575;-78
2023/04/08 03:14:37;;;;;;;11.67;9.50;;;7.50;90.20;;;;;;5114125;28;20251;-78
2023/04/08 03:17:03;;;;;;;14.27;9.73;;;7.50;90.00;;;;;;5114005;28;20646;-77
2023/04/08 03:19:28;;;;;;;11.03;9.07;;;7.40;89.60;;;;;;5113871;28;20215;-78
2023/04/08 03:21:54;;;;;;;15.47;9.97;;;7.50;90.00;;;;;;5114250;28;20525;-78
2023/04/08 03:24:20;;;;;;;11.83;9.50;;;7.40;89.30;;;;;;5114441;28;20651;-77
2023/04/08 03:26:45;;;;;;;11.87;10.40;;;7.40;89.50;;;;;;5113672;28;20177;-77
2023/04/08 03:29:11;;;;;;;13.07;9.73;;;7.50;89.40;;;;;;5113022;28;20186;-78
2023/04/08 03:31:37;;;;;;;10.87;9.33;;;7.50;89.40;;;;;;5114033;28;20170;-78
2023/04/08 03:34:03;;;;;;;15.10;10.33;;;7.40;90.00;;;;;;5114300;28;20177;-78
2023/04/08 03:36:28;;;;;;;11.53;9.53;;;7.40;90.30;;;;;;5113672;28;20177;-78
2023/04/08 03:38:54;;;;;;;14.53;9.53;;;7.40;89.80;;;;;;5113824;28;20338;-78
2023/04/08 03:41:20;;;;;;;14.83;9.57;;;7.30;89.90;;;;;;5113720;28;20168;-79
2023/04/08 03:43:46;;;;;;;14.03;10.53;;;7.40;90.20;;;;;;5113752;28;20173;-77
2023/04/08 03:46:12;;;;;;;12.67;9.03;;;7.40;90.20;;;;;;5113578;28;20256;-79
2023/04/08 03:48:37;;;;;;;14.33;10.07;;;7.40;90.20;;;;;;5113567;28;20177;-77
2023/04/08 03:51:03;;;;;;;10.23;9.03;;;7.40;90.20;;;;;;5113391;28;20180;-78
2023/04/08 03:53:29;;;;;;;12.83;9.73;;;7.40;90.20;;;;;;5113638;28;20177;-77
2023/04/08 03:55:56;;;;;;;14.33;10.20;;;7.30;90.30;;;;;;5113424;28;20183;-79
2023/04/08 03:58:22;;;;;;;13.37;10.23;;;7.30;90.20;;;;;;5113761;28;21035;-79
2023/04/08 04:00:47;;;;;;;15.10;9.37;;;7.30;90.20;;;;;;5113944;28;20312;-77
2023/04/08 04:03:13;;;;;;;13.43;10.07;;;7.30;90.20;;;;;;5095089;28;20176;-78
2023/04/08 04:05:39;;;;;;;11.77;9.50;;;7.30;90.70;;;;;;5094768;28;20682;-77
2023/04/08 04:08:05;;;;;;;15.17;10.63;;;7.30;90.90;;;;;;5113229;28;20240;-76
2023/04/08 04:10:31;;;;;;;11.43;9.83;;;7.30;90.60;;;;;;5113024;28;20183;-76
2023/04/08 04:12:57;;;;;;;17.23;10.63;;;7.20;90.40;;;;;;5113241;28;20180;-75
2023/04/08 04:15:23;;;;;;;12.97;9.30;;;7.20;90.60;;;;;;5112982;28;20387;-79
2023/04/08 04:17:51;;;;;;;13.30;9.37;;;7.20;90.70;;;;;;5115476;28;20243;-79
2023/04/08 04:20:17;;;;;;;13.47;9.50;;;7.20;90.60;;;;;;5113115;28;20575;-77
2023/04/08 04:22:43;;;;;;;13.50;9.53;;;7.30;90.80;;;;;;5113043;28;20173;-76
2023/04/08 04:25:09;;;;;;;11.43;9.60;;;7.20;90.90;;;;;;5113050;28;20257;-77
2023/04/08 04:27:38;;;;;;;14.97;10.10;;;7.10;91.00;;;;;;5112938;28;20223;-75
2023/04/08 04:30:06;;;;;;;10.83;9.33;;;7.00;91.20;;;;;;5112959;28;20168;-79
2023/04/08 04:32:31;;;;;;;13.77;9.90;;;6.90;91.50;;;;;;5112852;28;20165;-77
2023/04/08 04:34:57;;;;;;;12.83;10.00;;;7.00;91.40;;;;;;5112692;28;20231;-77
2023/04/08 04:37:23;;;;;;;13.97;10.63;;;7.00;91.80;;;;;;5112509;28;20173;-78
2023/04/08 04:39:48;;;;;;;12.40;9.87;;;7.10;92.20;;;;;;5111949;28;20214;-76
2023/04/08 04:42:14;;;;;;;12.27;9.63;;;7.10;92.30;;;;;;5094253;28;20211;-75
2023/04/08 04:44:40;;;;;;;13.40;9.83;;;7.10;92.40;;;;;;5112472;28;20171;-75
2023/04/08 04:47:05;;;;;;;15.27;10.73;;;7.10;92.70;;;;;;5112067;28;20210;-76
2023/04/08 04:49:31;;;;;;;11.57;10.30;;;7.10;92.90;;;;;;5110227;28;20187;-79
2023/04/08 04:51:57;;;;;;;14.20;9.63;;;7.10;93.00;;;;;;5103132;28;20219;-78
2023/04/08 04:54:22;;;;;;;16.03;10.50;;;7.10;92.80;;;;;;5111536;28;20253;-77
2023/04/08 04:56:48;;;;;;;12.50;9.43;;;7.00;93.20;;;;;;5112046;28;20176;-76
2023/04/08 04:59:14;;;;;;;14.13;11.10;;;6.90;93.10;;;;;;5112342;28;20235;-75
2023/04/08 05:01:40;;;;;;;14.10;10.03;;;6.90;93.30;;;;;;5112081;28;20222;-79
2023/04/08 05:04:06;;;;;;;13.33;9.80;;;6.90;93.80;;;;;;5112632;28;20196;-77
2023/04/08 05:06:32;;;;;;;17.43;10.43;;;6.90;93.80;;;;;;5112031;28;20172;-75
2023/04/08 05:08:58;;;;;;;12.97;9.80;;;6.80;93.90;;;;;;5112058;28;20184;-78
2023/04/08 05:11:24;;;;;;;13.40;9.67;;;6.90;94.70;;;;;;5112116;28;20187;-78
2023/04/08 05:13:50;;;;;;;16.47;11.67;;;6.90;94.70;;;;;;5093376;28;20283;-78
2023/04/08 05:16:15;;;;;;;14.23;10.80;;;6.80;94.80;;;;;;5111955;28;20170;-79
2023/04/08 05:18:41;;;;;;;16.07;10.73;;;6.80;95.60;;;;;;5095096;28;20401;-77
2023/04/08 05:21:07;;;;;;;14.47;10.87;;;6.80;96.40;;;;;;5111870;28;20257;-78
2023/04/08 05:23:36;;;;;;;13.17;10.67;;;6.80;97.00;;;;;;5093567;28;20761;-79
2023/04/08 05:26:02;;;;;;;14.10;11.30;;;6.80;97.40;;;;;;5111887;28;20692;-78
2023/04/08 05:28:28;;;;;;;13.40;10.87;;;6.80;97.30;;;;;;5112107;28;20261;-77
2023/04/08 05:30:54;;;;;;;13.80;10.80;;;6.80;97.80;;;;;;5112199;28;20262;-80
2023/04/08 05:33:19;;;;;;;15.17;11.60;;;6.80;97.80;;;;;;5112321;28;20548;-80
2023/04/08 05:35:45;;;;;;;15.83;12.37;;;6.80;98.30;;;;;;5111918;28;20183;-79
2023/04/08 05:38:11;;;;;;;15.53;11.10;;;6.80;98.40;;;;;;5111693;28;20199;-77
2023/04/08 05:40:37;;;;;;;16.33;11.17;;;6.80;98.60;;;;;;5111919;28;20199;-76
2023/04/08 05:43:03;;;;;;;15.83;12.00;;;6.80;98.70;;;;;;5111802;28;20210;-77
2023/04/08 05:45:29;;;;;;;13.73;11.10;;;6.80;99.20;;;;;;5111801;28;20183;-77
2023/04/08 05:47:55;;;;;;;14.33;11.47;;;6.80;99.10;;;;;;5112068;28;20249;-77
2023/04/08 05:50:21;;;;;;;15.33;11.67;;;6.70;99.50;;;;;;5111886;28;20601;-77
2023/04/08 05:52:47;;;;;;;14.73;11.73;;;6.80;99.80;;;;;;5115358;28;20266;-77
2023/04/08 05:55:14;;;;;;;12.43;9.97;;;6.70;99.70;;;;;;5115807;28;20183;-76
2023/04/08 05:57:40;;;;;;;15.60;11.33;;;6.70;99.90;;;;;;5115898;28;20181;-77
2023/04/08 06:00:08;;;;;;;15.07;11.50;;;6.70;99.90;;;;;;5099767;28;20285;-77
2023/04/08 06:02:35;;;;;;;14.67;11.03;;;6.70;99.90;;;;;;5097335;28;20168;-77
2023/04/08 06:05:03;;;;;;;19.37;12.50;;;6.70;99.90;;;;;;5115850;28;20173;-77
2023/04/08 06:07:29;;;;;;;14.73;11.67;;;6.70;99.90;;;;;;5115392;28;20256;-75
2023/04/08 06:09:55;;;;;;;15.23;11.77;;;6.70;99.90;;;;;;5115450;28;20259;-78
2023/04/08 06:12:21;;;;;;;21.33;11.07;;;6.70;99.90;;;;;;5115376;28;20569;-77
2023/04/08 06:14:47;;;;;;;15.40;12.40;;;6.70;99.90;;;;;;5115167;28;20703;-78
2023/04/08 06:17:13;;;;;;;15.60;11.30;;;6.80;99.90;;;;;;5096731;28;20640;-77
2023/04/08 06:19:39;;;;;;;15.57;11.97;;;6.80;99.90;;;;;;5115307;28;20207;-76
2023/04/08 06:22:05;;;;;;;16.20;11.43;;;6.70;99.90;;;;;;5115093;28;20697;-79
2023/04/08 06:24:30;;;;;;;21.20;12.40;;;6.60;99.90;;;;;;5115486;28;20680;-77
2023/04/08 06:26:56;;;;;;;16.67;11.03;;;6.60;99.90;;;;;;5114970;28;20498;-77
2023/04/08 06:29:22;;;;;;;15.37;11.40;;;6.70;99.90;;;;;;5115018;28;20180;-77
2023/04/08 06:31:49;;;;;;;15.60;11.23;;;6.80;99.90;;;;;;5096378;28;20169;-79
2023/04/08 06:34:15;;;;;;;15.57;10.63;;;6.80;99.90;;;;;;5114870;28;20243;-77
2023/04/08 06:36:41;;;;;;;14.57;11.13;;;6.80;99.90;;;;;;5116244;28;20824;-79
2023/04/08 06:39:09;;;;;;;15.43;11.70;;;6.80;99.90;;;;;;5114767;28;20220;-77
2023/04/08 06:41:35;;;;;;;15.73;10.77;;;6.70;99.90;;;;;;5114944;28;20166;-77
2023/04/08 06:44:01;;;;;;;13.83;10.07;;;6.70;99.90;;;;;;5114706;28;20241;-78
2023/04/08 06:46:27;;;;;;;14.03;10.70;;;6.60;99.90;;;;;;5096563;28;20174;-79
2023/04/08 06:48:53;;;;;;;15.17;10.00;;;6.60;99.90;;;;;;5115060;28;20173;-77
2023/04/08 06:51:19;;;;;;;14.43;11.23;;;6.70;99.90;;;;;;5097016;28;20637;-77
2023/04/08 06:53:45;;;;;;;13.50;10.37;;;6.70;99.90;;;;;;5096724;28;20274;-76
2023/04/08 06:56:11;;;;;;;13.03;9.80;;;6.70;99.90;;;;;;5114896;28;20168;-78
2023/04/08 06:58:37;;;;;;;13.80;10.07;;;6.70;99.90;;;;;;5114950;28;20207;-78
2023/04/08 07:01:03;;;;;;;13.43;10.07;;;6.60;99.90;;;;;;5115257;28;20178;-78
2023/04/08 07:03:29;;;;;;;12.13;9.53;;;6.50;99.90;;;;;;5095903;28;20629;-76
2023/04/08 07:05:55;;;;;;;12.17;9.43;;;6.40;99.90;;;;;;5096203;28;20270;-77
2023/04/08 07:08:21;;;;;;;11.50;9.03;;;6.40;99.90;;;;;;5114823;28;20176;-78
2023/04/08 07:10:46;;;;;;;10.50;9.10;;;6.40;99.90;;;;;;5114690;28;20174;-76
2023/04/08 07:13:12;;;;;;;10.17;9.13;;;6.40;99.90;;;;;;5114343;28;20638;-77
2023/04/08 07:15:38;;;;;;;8.83;7.90;;;6.30;99.90;;;;;;5114197;28;20266;-76
2023/04/08 07:18:04;;;;;;;9.70;8.20;;;6.30;99.90;;;;;;5113743;28;20180;-77
2023/04/08 07:20:30;;;;;;;10.80;8.50;;;6.30;99.90;;;;;;5113803;28;20206;-78
2023/04/08 07:22:56;;;;;;;9.17;7.67;;;6.30;99.90;;;;;;5113298;28;20225;-76
2023/04/08 07:25:21;;;;;;;9.03;8.10;;;6.40;99.90;;;;;;5114339;28;20168;-77
2023/04/08 07:27:47;;;;;;;11.07;8.73;;;6.30;99.90;;;;;;5114155;28;20749;-75
2023/04/08 07:30:13;;;;;;;11.43;7.70;;;6.30;99.90;;;;;;5114198;28;20171;-78
2023/04/08 07:32:39;;;;;;;9.83;7.90;;;6.30;99.90;;;;;;5095643;28;20276;-78
2023/04/08 07:35:06;;;;;;;9.80;8.53;;;6.30;99.90;;;;;;5096228;28;20181;-77
2023/04/08 07:37:31;;;;;;;8.83;7.77;;;6.30;99.90;;;;;;5106322;28;20190;-76
2023/04/08 07:39:57;;;;;;;8.17;7.37;;;6.50;99.90;;;;;;5082375;28;20221;-76
2023/04/08 07:42:23;;;;;;;8.13;6.67;;;6.50;99.90;;;;;;5113569;28;20181;-77
2023/04/08 07:44:48;;;;;;;7.93;7.13;;;6.50;99.90;;;;;;5113231;28;20182;-77
2023/04/08 07:47:15;;;;;;;6.73;6.03;;;6.50;99.90;;;;;;5114288;28;20187;-78
2023/04/08 07:49:41;;;;;;;6.70;6.00;;;6.40;99.90;;;;;;5112253;28;20180;-77
2023/04/08 07:52:07;;;;;;;6.77;6.17;;;6.30;99.90;;;;;;5113672;28;20181;-77
2023/04/08 07:54:35;;;;;;;7.20;6.43;;;6.40;99.90;;;;;;5113615;28;20179;-77
2023/04/08 07:57:01;;;;;;;7.53;6.80;;;6.40;99.90;;;;;;5112975;28;20180;-77
2023/04/08 07:59:28;;;;;;;8.00;7.20;;;6.30;99.90;;;;;;5114775;28;20684;-76
2023/04/08 08:01:54;;;;;;;8.20;7.37;;;6.30;99.90;;;;;;5111957;28;20186;-76
2023/04/08 08:04:20;;;;;;;7.80;6.97;;;6.30;99.90;;;;;;5113666;28;20538;-78
2023/04/08 08:06:46;;;;;;;7.60;6.90;;;6.20;99.90;;;;;;5113776;28;20576;-76
2023/04/08 08:09:12;;;;;;;8.03;7.23;;;6.20;99.90;;;;;;5114116;28;20200;-76
2023/04/08 08:11:38;;;;;;;8.70;7.27;;;6.00;99.90;;;;;;5113575;28;20177;-77
2023/04/08 08:14:04;;;;;;;7.33;6.63;;;6.10;99.90;;;;;;5112486;28;20226;-78
2023/04/08 08:16:32;;;;;;;8.80;7.73;;;6.10;99.90;;;;;;5113279;28;20196;-76
2023/04/08 08:18:58;;;;;;;7.37;6.70;;;6.00;99.90;;;;;;5094767;28;20215;-80
2023/04/08 08:21:25;;;;;;;7.87;6.77;;;6.10;99.90;;;;;;5112979;28;20271;-77
2023/04/08 08:23:53;;;;;;;8.50;7.30;;;6.20;99.90;;;;;;5112853;28;20559;-76
2023/04/08 08:26:20;;;;;;;7.43;6.57;;;6.30;99.90;;;;;;5112856;28;20176;-77
2023/04/08 08:28:45;;;;;;;8.33;7.03;;;6.50;99.90;;;;;;5113448;28;20273;-76
2023/04/08 08:31:11;;;;;;;9.37;7.37;;;6.60;99.90;;;;;;5112998;28;20241;-77
2023/04/08 08:33:37;;;;;;;7.30;6.53;;;6.60;99.90;;;;;;5112760;28;20636;-77
2023/04/08 08:36:04;;;;;;;7.90;6.77;;;6.70;99.90;;;;;;5112568;28;20222;-77
2023/04/08 08:38:30;;;;;;;8.53;6.90;;;6.70;99.90;;;;;;5094432;28;20235;-80
2023/04/08 08:40:59;;;;;;;7.90;7.10;;;6.70;99.90;;;;;;5094413;28;20175;-75
2023/04/08 08:43:27;;;;;;;7.83;7.07;;;6.80;99.90;;;;;;5112594;28;20194;-76
2023/04/08 08:45:53;;;;;;;7.83;7.03;;;6.80;99.90;;;;;;5112168;28;20161;-76
2023/04/08 08:48:20;;;;;;;7.60;6.87;;;6.80;99.90;;;;;;5112611;28;20177;-78
2023/04/08 08:50:46;;;;;;;7.80;6.83;;;6.90;99.90;;;;;;5112758;28;20183;-77
2023/04/08 08:53:11;;;;;;;7.10;6.40;;;6.90;99.90;;;;;;5112416;28;20166;-78
2023/04/08 08:55:38;;;;;;;7.40;6.70;;;6.90;99.90;;;;;;5112062;28;20617;-78
2023/04/08 08:58:09;;;;;;;7.83;7.03;;;6.80;99.90;;;;;;5112469;28;20251;-79
2023/04/08 09:00:41;;;;;;;7.67;6.87;;;7.00;99.90;;;;;;5094199;28;20262;-77
2023/04/08 09:03:20;;;;;;;7.23;6.60;;;7.00;99.90;;;;;;5112572;28;20183;-77
2023/04/08 09:05:52;;;;;;;7.10;6.33;;;6.90;99.90;;;;;;5112052;28;20160;-78
2023/04/08 09:08:35;;;;;;;7.83;7.03;;;6.80;99.90;;;;;;5112352;28;20173;-77
2023/04/08 09:11:11;;;;;;;7.13;6.50;;;6.80;99.90;;;;;;5110439;28;20597;-78
2023/04/08 09:13:37;;;;;;;7.10;6.40;;;6.90;99.90;;;;;;5112063;28;20244;-80
2023/04/08 09:16:08;;;;;;;7.00;6.37;;;6.80;99.90;;;;;;5110881;28;20176;-77
2023/04/08 09:18:36;;;;;;;7.47;6.07;;;6.90;99.90;;;;;;5112306;28;20216;-76
2023/04/08 09:21:03;;;;;;;7.00;6.30;;;6.90;99.90;;;;;;5113277;28;20703;-77
2023/04/08 09:23:49;;;;;;;6.87;6.27;;;7.00;99.90;;;;;;5112325;28;20509;-79
2023/04/08 09:26:26;;;;;;;7.10;6.40;;;7.00;99.90;;;;;;5113441;28;20205;-77
2023/04/08 09:29:06;;;;;;;7.23;6.53;;;7.00;99.90;;;;;;5116974;28;20236;-77
2023/04/08 09:31:39;;;;;;;10.33;7.17;;;7.10;99.90;;;;;;5116716;28;20166;-79
2023/04/08 09:34:16;;;;;;;7.07;6.33;;;7.10;99.90;;;;;;5116685;28;20154;-75
2023/04/08 09:36:43;;;;;;;7.67;6.63;;;7.10;99.90;;;;;;5116285;28;20165;-75
2023/04/08 09:39:09;;;;;;;8.13;7.33;;;7.20;99.90;;;;;;5116416;28;20208;-79
2023/04/08 09:41:37;;;;;;;7.83;6.77;;;7.10;99.90;;;;;;5116474;28;20175;-77
2023/04/08 09:44:06;;;;;;;7.93;7.10;;;7.10;99.90;;;;;;5116265;28;20273;-78
2023/04/08 09:46:38;;;;;;;8.27;7.40;;;7.10;99.90;;;;;;5115696;28;20254;-78
2023/04/08 09:49:10;;;;;;;7.40;6.60;;;7.10;99.90;;;;;;5116179;28;20157;-78
2023/04/08 09:51:59;;;;;;;9.13;7.57;;;7.20;99.90;;;;;;5116201;28;20173;-77
2023/04/08 09:54:36;;;;;;;7.07;6.37;;;7.20;99.90;;;;;;5055148;28;20192;-77
2023/04/08 09:57:12;;;;;;;7.83;7.03;;;7.10;99.90;;;;;;5100123;28;20200;-76
2023/04/08 09:59:44;;;;;;;7.97;7.13;;;7.00;99.90;;;;;;5094782;28;20198;-77
2023/04/08 10:02:14;;;;;;;9.17;7.57;;;7.10;99.90;;;;;;5112820;28;20178;-77
2023/04/08 10:04:44;;;;;;;7.43;6.73;;;7.20;99.90;;;;;;5115198;28;20227;-76
2023/04/08 10:07:12;;;;;;;9.00;7.80;;;7.20;99.90;;;;;;5097051;28;20177;-76
2023/04/08 10:09:41;;;;;;;8.33;7.50;;;7.30;99.90;;;;;;5097258;28;20591;-77
2023/04/08 10:12:08;;;;;;;7.33;6.63;;;7.40;99.90;;;;;;5115662;28;20176;-77
2023/04/08 10:14:34;;;;;;;8.83;7.87;;;7.50;99.90;;;;;;5115289;28;20685;-77
2023/04/08 10:17:26;;;;;;;8.30;7.50;;;7.60;99.90;;;;;;5115219;28;20175;-78
2023/04/08 10:19:52;;;;;;;8.47;7.57;;;7.70;99.90;;;;;;5115525;28;20217;-77
2023/04/08 10:22:33;;;;;;;7.70;6.90;;;7.70;99.90;;;;;;5115365;28;20171;-75
2023/04/08 10:25:34;;;;;;;7.73;7.03;;;7.70;99.90;;;;;;5115430;28;20185;-79
2023/04/08 10:28:07;;;;;;;7.83;7.13;;;7.90;99.90;;;;;;5115446;28;20235;-76
2023/04/08 10:30:32;;;;;;;7.67;6.93;;;7.80;99.90;;;;;;5115808;28;20194;-78
2023/04/08 10:32:59;;;;;;;7.83;7.07;;;7.90;99.90;;;;;;5115444;28;20980;-81
2023/04/08 10:35:33;;;;;;;8.30;7.40;;;8.00;99.90;;;;;;5116335;28;20177;-81
2023/04/08 10:38:00;;;;;;;8.03;7.20;;;8.00;99.90;;;;;;5114709;28;20176;-77
2023/04/08 10:40:26;;;;;;;8.93;7.40;;;8.10;99.90;;;;;;5115347;28;20173;-78
2023/04/08 10:42:58;;;;;;;7.80;7.10;;;8.20;99.90;;;;;;5115433;28;20256;-76
2023/04/08 10:45:24;;;;;;;7.67;6.90;;;8.30;99.90;;;;;;5114387;28;20183;-77
2023/04/08 10:47:50;;;;;;;7.40;6.70;;;8.50;99.90;;;;;;5114457;28;20226;-77
2023/04/08 10:50:18;;;;;;;8.23;7.43;;;8.50;99.90;;;;;;5115195;28;20249;-76
2023/04/08 10:52:47;;;;;;;7.77;6.97;;;8.70;99.90;;;;;;5114531;28;20165;-76
2023/04/08 10:55:13;;;;;;;8.90;7.63;;;8.90;99.90;;;;;;5113554;28;20181;-75
2023/04/08 10:57:42;;;;;;;8.40;7.33;;;9.00;99.90;;;;;;5114463;28;20504;-77
2023/04/08 11:00:11;;;;;;;7.60;6.90;;;9.10;99.90;;;;;;5114693;28;20209;-77
2023/04/08 11:02:40;;;;;;;8.63;7.20;;;9.10;99.90;;;;;;5114708;28;20572;-75
2023/04/08 11:05:08;;;;;;;8.53;6.70;;;9.20;99.90;;;;;;5114709;28;20255;-77
2023/04/08 11:07:42;;;;;;;7.27;6.57;;;9.30;99.90;;;;;;5114293;28;20230;-76
2023/04/08 11:10:08;;;;;;;7.50;6.80;;;9.30;99.90;;;;;;5114498;28;20154;-77
2023/04/08 11:12:36;;;;;;;7.87;6.70;;;9.50;99.80;;;;;;5114628;28;20166;-77
2023/04/08 11:15:03;;;;;;;7.23;6.53;;;9.50;99.90;;;;;;5114358;28;20348;-78
2023/04/08 11:17:30;;;;;;;7.37;6.70;;;9.50;99.90;;;;;;5078895;28;20185;-78
2023/04/08 11:20:01;;;;;;;7.90;7.03;;;9.50;99.90;;;;;;5114413;28;20274;-77
2023/04/08 11:22:27;;;;;;;7.47;6.77;;;9.30;99.90;;;;;;5114589;28;20233;-76
2023/04/08 11:24:55;;;;;;;7.87;6.90;;;9.20;99.90;;;;;;5114287;28;20173;-78
2023/04/08 11:27:24;;;;;;;7.83;7.03;;;9.30;99.60;;;;;;5114119;28;20178;-79
2023/04/08 11:29:51;;;;;;;7.03;6.37;;;9.40;99.70;;;;;;5114294;28;20241;-78
2023/04/08 11:32:17;;;;;;;7.87;7.07;;;9.40;99.30;;;;;;5114064;28;20170;-75
2023/04/08 11:34:43;;;;;;;7.57;6.87;;;9.30;99.30;;;;;;5114088;28;20174;-76
2023/04/08 11:37:09;;;;;;;8.17;7.37;;;9.30;99.30;;;;;;5113908;28;20221;-77
2023/04/08 11:39:43;;;;;;;7.63;6.87;;;9.30;99.40;;;;;;5113482;28;20216;-80
2023/04/08 11:42:24;;;;;;;8.83;7.47;;;9.50;99.30;;;;;;5113825;28;20230;-80
2023/04/08 11:44:50;;;;;;;8.80;7.90;;;9.60;99.90;;;;;;5113491;28;20177;-81
2023/04/08 11:47:16;;;;;;;11.03;7.83;;;9.70;99.50;;;;;;5113102;28;20200;-77
2023/04/08 11:49:45;;;;;;;8.57;7.77;;;9.80;99.40;;;;;;5112716;28;20170;-77
2023/04/08 11:52:11;;;;;;;9.40;8.17;;;9.70;98.70;;;;;;5114033;28;20174;-77
2023/04/08 11:54:41;;;;;;;8.43;7.63;;;9.70;98.90;;;;;;5114101;28;20184;-77
2023/04/08 11:57:08;;;;;;;8.27;7.50;;;9.70;98.80;;;;;;5113436;28;20176;-77
2023/04/08 11:59:37;;;;;;;7.73;7.03;;;9.80;98.50;;;;;;5113440;28;20238;-77
2023/04/08 12:02:03;;;;;;;8.13;7.37;;;9.80;98.60;;;;;;5113550;28;20583;-75
2023/04/08 12:04:29;;;;;;;8.37;7.57;;;9.80;98.90;;;;;;5113579;28;20174;-80
2023/04/08 12:06:55;;;;;;;8.10;7.33;;;9.70;99.20;;;;;;5113142;28;20190;-77
2023/04/08 12:09:21;;;;;;;8.43;7.63;;;9.80;99.70;;;;;;5112999;28;20197;-77
2023/04/08 12:11:47;;;;;;;8.20;7.40;;;9.90;99.90;;;;;;5113250;28;20622;-76
2023/04/08 12:14:13;;;;;;;8.87;7.97;;;9.80;99.60;;;;;;5113073;28;20350;-76
2023/04/08 12:16:39;;;;;;;8.17;7.37;;;9.70;98.80;;;;;;5094549;28;20193;-76
2023/04/08 12:19:05;;;;;;;8.43;7.63;;;9.50;99.00;;;;;;5112768;28;20673;-75
2023/04/08 12:21:32;;;;;;;7.97;7.17;;;9.50;98.80;;;;;;5113085;28;20178;-79
2023/04/08 12:23:58;;;;;;;8.03;7.23;;;9.50;98.90;;;;;;5094792;28;20178;-76
2023/04/08 12:26:24;;;;;;;8.57;7.70;;;9.50;99.20;;;;;;5112828;28;20632;-77
2023/04/08 12:28:49;;;;;;;8.53;7.70;;;9.50;99.50;;;;;;5113355;28;20295;-76
2023/04/08 12:31:15;;;;;;;7.43;6.73;;;9.30;98.90;;;;;;5112894;28;20622;-76
2023/04/08 12:33:41;;;;;;;8.03;7.33;;;9.20;98.90;;;;;;5112795;28;20182;-76
2023/04/08 12:36:07;;;;;;;7.50;6.80;;;9.20;99.20;;;;;;5112498;28;20728;-74
2023/04/08 12:38:32;;;;;;;7.30;6.57;;;9.20;99.60;;;;;;5112377;28;20209;-76
2023/04/08 12:40:58;;;;;;;7.27;6.60;;;9.20;99.20;;;;;;5112619;28;20655;-75
2023/04/08 12:43:24;;;;;;;8.17;7.47;;;9.30;99.40;;;;;;5112639;28;20178;-75
2023/04/08 12:45:50;;;;;;;7.70;7.00;;;9.30;99.40;;;;;;5112371;28;20234;-77
2023/04/08 12:48:16;;;;;;;7.20;6.50;;;9.40;99.90;;;;;;5112435;28;20174;-78
2023/04/08 12:50:42;;;;;;;7.17;6.47;;;9.50;99.70;;;;;;5112503;28;20181;-78